McDonald, Tennessee
Current Conditions -  °F | °C
As of 10:55 AM on Thursday 23 Oct 2014 (Local Time) from KRZR Reporting Station
Clear Clear  
Wind Chill: 52°   Ceiling: Unl
Heat Index: 52°   Visibility: 10mi
Dew Point: 39°   Wind: 9mph
Humidity: 62%   Direction: 40°NE
Pressure: 30.19"   Gusts: NA
Location:  35.11°N, 84.98°W
Report Text: KRZR 231455Z AUTO 04008KT 10SM CLR 11/04 A3019 RMK
Loading
Personal Weather Stations






























Interactive Weather Map
Tropical Storm Tracking
New forecast layout! Learn more

10-Day Weather Forecast

Advertisements
Track Severe Weather on mobile